Time;durP1;ratioP1;P1;durP2;ratioP2;P2;SDS_P1;SDS_P2;PMS_P1;PMS_P2;Temp;Humidity;BMP_temperature;BMP_pressure;BME280_temperature;BME280_humidity;BME280_pressure;Samples;Min_cycle;Max_cycle;Signal;HPM_P1;HPM_P2
2022/01/13 00:00:29;;;;;;;6.78;2.35;;;0.60;71.20;;;;;;5117471;27;20042;-74
2022/01/13 00:02:55;;;;;;;4.00;1.95;;;0.60;70.60;;;;;;5118939;27;20038;-74
2022/01/13 00:05:28;;;;;;;4.43;2.05;;;0.80;70.10;;;;;;5119596;27;20549;-74
2022/01/13 00:07:58;;;;;;;4.75;2.15;;;0.90;69.90;;;;;;5112786;27;20023;-74
2022/01/13 00:10:27;;;;;;;4.85;1.83;;;0.70;70.80;;;;;;5122214;27;20031;-74
2022/01/13 00:13:02;;;;;;;4.75;1.90;;;0.80;70.50;;;;;;5119886;27;20023;-74
2022/01/13 00:15:41;;;;;;;5.82;2.28;;;1.00;69.70;;;;;;5125276;27;20397;-74
2022/01/13 00:18:16;;;;;;;3.97;1.73;;;1.00;69.70;;;;;;5124527;27;20050;-75
2022/01/13 00:23:41;;;;;;;4.45;1.77;;;0.80;70.30;;;;;;5122388;27;20035;-74
2022/01/13 00:26:21;;;;;;;6.60;2.10;;;0.60;70.60;;;;;;5121801;27;20110;-73
2022/01/13 00:28:50;;;;;;;3.08;1.42;;;0.80;69.80;;;;;;5122964;27;20359;-74
2022/01/13 00:31:22;;;;;;;5.93;2.03;;;0.90;69.80;;;;;;5124622;27;20604;-74
2022/01/13 00:33:50;;;;;;;4.03;2.08;;;1.00;69.10;;;;;;5124009;27;20031;-74
2022/01/13 00:36:16;;;;;;;3.80;1.90;;;1.00;69.60;;;;;;5124928;27;20505;-75
2022/01/13 00:38:42;;;;;;;5.60;3.15;;;0.90;69.60;;;;;;5122403;27;20035;-73
2022/01/13 00:41:08;;;;;;;5.00;1.90;;;0.80;69.90;;;;;;5124307;27;20023;-74
2022/01/13 00:43:39;;;;;;;4.22;1.80;;;0.80;70.50;;;;;;5123900;28;20020;-73
2022/01/13 00:46:04;;;;;;;4.85;2.03;;;0.70;71.00;;;;;;5127746;28;20022;-73
2022/01/13 00:48:30;;;;;;;6.68;2.10;;;0.70;70.70;;;;;;5128172;27;20420;-74
2022/01/13 00:50:56;;;;;;;5.35;1.73;;;0.70;70.80;;;;;;5125502;27;20031;-74
2022/01/13 00:53:21;;;;;;;4.47;1.92;;;0.60;71.20;;;;;;5126735;27;20061;-74
2022/01/13 00:58:13;;;;;;;4.60;1.70;;;0.70;70.80;;;;;;5126243;27;20035;-74
2022/01/13 01:00:40;;;;;;;5.13;1.75;;;0.70;70.60;;;;;;5119722;27;20473;-74
2022/01/13 01:03:07;;;;;;;5.60;2.33;;;0.40;71.70;;;;;;5127435;27;20024;-73
2022/01/13 01:05:34;;;;;;;5.25;2.30;;;0.40;72.00;;;;;;5126120;27;20080;-74
2022/01/13 01:08:01;;;;;;;3.53;1.60;;;0.50;71.40;;;;;;5125511;28;20126;-73
2022/01/13 01:10:26;;;;;;;8.68;1.73;;;0.40;72.00;;;;;;5126281;27;20435;-74
2022/01/13 01:12:52;;;;;;;3.85;2.45;;;0.40;72.00;;;;;;5115602;27;20027;-74
2022/01/13 01:15:18;;;;;;;4.82;1.65;;;0.40;72.20;;;;;;5134545;27;20035;-74
2022/01/13 01:17:49;;;;;;;6.20;2.97;;;0.30;72.20;;;;;;5125902;27;20027;-74
2022/01/13 01:20:15;;;;;;;7.93;2.50;;;0.30;72.40;;;;;;5131595;27;20098;-74
2022/01/13 01:22:59;;;;;;;4.95;2.10;;;0.20;73.00;;;;;;5127185;27;20594;-74
2022/01/13 01:25:42;;;;;;;5.75;2.88;;;0.20;72.40;;;;;;5133549;27;20027;-73
2022/01/13 01:28:15;;;;;;;4.45;1.83;;;0.10;72.50;;;;;;5128608;27;20152;-74
2022/01/13 01:30:43;;;;;;;4.40;2.00;;;0.20;72.20;;;;;;5131318;27;20043;-74
2022/01/13 01:33:15;;;;;;;5.40;2.08;;;0.20;71.80;;;;;;5127907;27;20029;-73
2022/01/13 01:35:40;;;;;;;5.55;1.63;;;0.40;71.40;;;;;;5135173;27;20019;-74
2022/01/13 01:38:07;;;;;;;6.93;2.40;;;0.40;71.60;;;;;;5132634;27;20023;-73
2022/01/13 01:40:32;;;;;;;5.30;2.42;;;0.40;73.00;;;;;;5133548;27;20023;-73
2022/01/13 01:42:58;;;;;;;4.93;2.33;;;0.30;73.60;;;;;;5154916;27;20027;-73
2022/01/13 01:45:30;;;;;;;5.18;2.10;;;0.10;73.70;;;;;;5138575;27;20080;-74
2022/01/13 01:47:56;;;;;;;5.20;1.90;;;-0.10;74.10;;;;;;5126366;27;20467;-74
2022/01/13 01:50:24;;;;;;;5.25;2.08;;;-0.20;74.70;;;;;;5131081;27;20039;-74
2022/01/13 01:52:54;;;;;;;4.18;1.85;;;-0.20;74.70;;;;;;5130419;27;20027;-74
2022/01/13 01:55:20;;;;;;;3.97;1.63;;;0.00;73.80;;;;;;5130416;27;20478;-74
2022/01/13 01:57:49;;;;;;;3.80;1.80;;;0.00;74.10;;;;;;5124453;27;20031;-73
2022/01/13 02:00:17;;;;;;;3.67;1.70;;;0.00;74.80;;;;;;5126872;27;20443;-74
2022/01/13 02:02:44;;;;;;;4.03;1.95;;;-0.10;75.80;;;;;;5122028;27;20035;-74
2022/01/13 02:05:10;;;;;;;3.95;1.63;;;0.00;75.50;;;;;;5128383;27;20019;-73
2022/01/13 02:07:37;;;;;;;5.68;2.58;;;-0.10;74.50;;;;;;5123648;27;20074;-73
2022/01/13 02:10:04;;;;;;;5.32;2.42;;;-0.20;74.70;;;;;;5132139;27;20550;-74
2022/01/13 02:12:43;;;;;;;4.63;2.20;;;-0.20;75.90;;;;;;5124849;27;20035;-73
2022/01/13 02:17:40;;;;;;;4.53;1.98;;;-0.40;75.20;;;;;;5125051;27;20386;-74
2022/01/13 02:20:07;;;;;;;4.90;2.10;;;-0.50;75.30;;;;;;5129518;27;20030;-74
2022/01/13 02:22:33;;;;;;;5.18;2.03;;;-0.50;75.30;;;;;;5125526;27;20027;-74
2022/01/13 02:24:59;;;;;;;3.27;1.50;;;-0.40;75.00;;;;;;5129360;27;20035;-74
2022/01/13 02:27:25;;;;;;;3.08;1.23;;;-0.50;75.20;;;;;;5129306;27;20156;-73
2022/01/13 02:29:51;;;;;;;4.13;1.52;;;-0.40;74.70;;;;;;5128471;27;20396;-74
2022/01/13 02:32:18;;;;;;;3.65;1.80;;;-0.10;73.70;;;;;;5132297;27;20058;-74
2022/01/13 02:34:44;;;;;;;3.92;1.70;;;0.10;72.50;;;;;;5130701;27;20031;-73
2022/01/13 02:37:10;;;;;;;8.63;1.92;;;0.30;72.00;;;;;;5124761;27;20485;-73
2022/01/13 02:39:36;;;;;;;3.53;1.85;;;0.40;71.70;;;;;;5131802;27;20030;-73
2022/01/13 02:42:05;;;;;;;6.28;2.25;;;0.10;73.70;;;;;;5128284;27;20047;-73
2022/01/13 02:44:31;;;;;;;5.27;2.47;;;0.00;74.40;;;;;;5133234;27;20031;-74
2022/01/13 02:47:21;;;;;;;6.90;2.60;;;-0.10;75.90;;;;;;5124830;27;20034;-73
2022/01/13 02:49:47;;;;;;;8.68;2.35;;;-0.30;75.60;;;;;;5126857;27;20031;-73
2022/01/13 02:52:12;;;;;;;5.95;2.38;;;-0.30;75.40;;;;;;5128638;27;20076;-74
2022/01/13 02:54:38;;;;;;;6.60;2.13;;;-0.40;75.00;;;;;;5123067;27;20060;-73
2022/01/13 02:57:04;;;;;;;4.57;2.17;;;-0.30;74.30;;;;;;5130922;27;20031;-74
2022/01/13 02:59:29;;;;;;;5.30;2.27;;;-0.30;74.40;;;;;;5126923;27;20031;-74
2022/01/13 03:01:55;;;;;;;5.50;2.65;;;-0.40;75.20;;;;;;5131534;27;20068;-74
2022/01/13 03:04:23;;;;;;;5.40;2.35;;;-0.50;75.50;;;;;;5127453;27;20030;-74
2022/01/13 03:06:49;;;;;;;6.88;2.75;;;-0.50;74.90;;;;;;5129737;27;20107;-73
2022/01/13 03:09:15;;;;;;;5.50;2.60;;;-0.40;74.70;;;;;;5126898;27;20106;-74
2022/01/13 03:11:43;;;;;;;4.93;2.35;;;-0.60;75.10;;;;;;5130823;27;20553;-74
2022/01/13 03:14:11;;;;;;;2.93;1.53;;;-0.70;75.50;;;;;;5130928;27;20377;-74
2022/01/13 03:16:37;;;;;;;5.97;2.42;;;-0.70;75.40;;;;;;5125957;27;20128;-74
2022/01/13 03:19:03;;;;;;;7.25;1.98;;;-0.30;73.80;;;;;;5129332;27;20027;-74
2022/01/13 03:21:29;;;;;;;4.70;2.30;;;0.20;72.50;;;;;;5126586;27;20038;-73
2022/01/13 03:23:55;;;;;;;5.97;2.30;;;0.40;71.70;;;;;;5130252;27;20081;-74
2022/01/13 03:26:21;;;;;;;5.35;2.72;;;0.20;72.80;;;;;;5127870;27;20035;-73
2022/01/13 03:28:51;;;;;;;4.72;2.40;;;0.10;72.80;;;;;;5131613;27;20039;-74
2022/01/13 03:31:19;;;;;;;6.80;2.47;;;0.00;73.00;;;;;;5128461;27;20556;-74
2022/01/13 03:33:45;;;;;;;3.40;1.95;;;0.00;74.00;;;;;;5122321;27;20373;-74
2022/01/13 03:36:11;;;;;;;3.60;1.65;;;-0.30;74.20;;;;;;5127372;27;20042;-75
2022/01/13 03:38:37;;;;;;;5.90;2.05;;;-0.40;75.30;;;;;;5126477;27;20389;-73
2022/01/13 03:41:03;;;;;;;5.80;2.22;;;-0.40;75.10;;;;;;5126969;27;20027;-74
2022/01/13 03:43:29;;;;;;;6.30;2.10;;;-0.60;75.50;;;;;;5126030;27;20039;-74
2022/01/13 03:45:55;;;;;;;6.57;2.23;;;-0.50;75.30;;;;;;5125235;27;20076;-74
2022/01/13 03:48:21;;;;;;;6.10;2.20;;;-0.60;75.70;;;;;;5131360;27;20042;-73
2022/01/13 03:50:47;;;;;;;4.53;2.38;;;-0.60;75.50;;;;;;5125459;27;20550;-74
2022/01/13 03:53:28;;;;;;;3.95;1.98;;;-0.60;75.30;;;;;;5124799;27;20051;-74
2022/01/13 03:56:30;;;;;;;5.20;2.80;;;-0.50;75.80;;;;;;5131507;27;20084;-74
2022/01/13 03:59:18;;;;;;;6.10;2.93;;;-0.60;75.10;;;;;;5129149;27;20123;-74
2022/01/13 04:02:00;;;;;;;6.07;3.37;;;-0.40;75.50;;;;;;5128776;27;20616;-73
2022/01/13 04:04:29;;;;;;;7.27;3.43;;;-0.50;76.20;;;;;;5117656;27;20118;-73
2022/01/13 04:07:18;;;;;;;5.13;2.17;;;-0.60;76.90;;;;;;5113943;27;20126;-73
2022/01/13 04:09:44;;;;;;;4.33;2.40;;;-0.80;76.30;;;;;;5122342;27;20043;-73
2022/01/13 04:12:12;;;;;;;4.05;1.63;;;-0.90;76.10;;;;;;5119626;27;20346;-73
2022/01/13 04:17:14;;;;;;;4.83;1.83;;;-0.90;75.90;;;;;;5121043;27;20028;-73
2022/01/13 04:19:40;;;;;;;4.70;1.67;;;-0.60;74.60;;;;;;5123138;27;20016;-73
2022/01/13 04:22:07;;;;;;;4.80;1.93;;;-0.30;74.20;;;;;;5123553;27;20027;-73
2022/01/13 04:24:34;;;;;;;5.40;1.80;;;-0.20;73.50;;;;;;5114026;27;20497;-73
2022/01/13 04:27:00;;;;;;;6.55;2.58;;;-0.20;73.80;;;;;;5122854;27;20031;-73
2022/01/13 04:29:34;;;;;;;5.93;1.80;;;-0.20;73.30;;;;;;5121271;27;20080;-73
2022/01/13 04:32:00;;;;;;;3.85;1.40;;;-0.20;73.50;;;;;;5125367;27;20027;-73
2022/01/13 04:34:26;;;;;;;3.20;1.63;;;-0.30;73.70;;;;;;5119608;27;20028;-73
2022/01/13 04:36:58;;;;;;;3.47;1.63;;;-0.50;74.70;;;;;;5120766;27;20027;-73
2022/01/13 04:39:24;;;;;;;5.23;2.03;;;-0.50;75.20;;;;;;5125259;27;20048;-73
2022/01/13 04:41:52;;;;;;;6.15;2.17;;;-0.40;74.30;;;;;;5124115;28;20564;-73
2022/01/13 04:44:21;;;;;;;3.83;1.58;;;-0.40;74.40;;;;;;5124127;27;20054;-73
2022/01/13 04:46:49;;;;;;;4.55;2.08;;;-0.40;74.10;;;;;;5125126;27;20031;-73
2022/01/13 04:49:19;;;;;;;6.28;1.83;;;-0.30;74.10;;;;;;5123608;27;20035;-73
2022/01/13 04:51:48;;;;;;;6.57;2.03;;;-0.10;73.20;;;;;;5127176;27;20055;-73
2022/01/13 04:54:13;;;;;;;5.15;2.33;;;-0.10;72.90;;;;;;5126912;27;20071;-73
2022/01/13 04:59:12;;;;;;;3.55;1.63;;;-0.40;74.50;;;;;;5123921;27;20096;-73
2022/01/13 05:01:38;;;;;;;4.35;1.48;;;-0.40;74.50;;;;;;5124417;27;20034;-73
2022/01/13 05:04:05;;;;;;;4.18;1.58;;;-0.40;75.00;;;;;;5118592;27;20091;-73
2022/01/13 05:06:31;;;;;;;4.78;1.42;;;-0.40;74.30;;;;;;5119970;27;20115;-73
2022/01/13 05:08:57;;;;;;;3.00;1.48;;;-0.30;74.10;;;;;;5121491;27;20031;-73
2022/01/13 05:11:24;;;;;;;4.30;1.50;;;-0.40;74.20;;;;;;5123546;27;20028;-73
2022/01/13 05:13:50;;;;;;;3.47;1.83;;;-0.40;74.00;;;;;;5125962;27;20023;-73
2022/01/13 05:16:27;;;;;;;3.55;2.38;;;-0.40;74.10;;;;;;5124982;27;20485;-72
2022/01/13 05:19:07;;;;;;;6.10;1.85;;;-0.40;74.40;;;;;;5119374;27;20020;-73
2022/01/13 05:24:17;;;;;;;3.97;1.55;;;-0.30;73.60;;;;;;5127661;27;20998;-73
2022/01/13 05:26:43;;;;;;;3.07;1.30;;;-0.30;73.90;;;;;;5128330;27;20035;-73
2022/01/13 05:29:12;;;;;;;4.37;1.80;;;-0.30;73.80;;;;;;5126325;27;20089;-73
2022/01/13 05:31:37;;;;;;;3.30;1.60;;;-0.40;75.00;;;;;;5121919;27;20546;-73
2022/01/13 05:34:03;;;;;;;5.07;2.33;;;-0.50;75.70;;;;;;5128435;27;20023;-73
2022/01/13 05:36:29;;;;;;;6.90;2.47;;;-0.60;75.20;;;;;;5135666;27;20070;-73
2022/01/13 05:38:54;;;;;;;3.63;1.88;;;-0.70;75.90;;;;;;5127771;27;20038;-73
2022/01/13 05:41:20;;;;;;;4.72;1.98;;;-0.70;76.50;;;;;;5125439;27;20023;-73
2022/01/13 05:43:46;;;;;;;6.28;2.05;;;-0.80;76.40;;;;;;5126088;27;20423;-73
2022/01/13 05:46:11;;;;;;;4.30;2.00;;;-0.90;76.40;;;;;;5122281;27;20031;-73
2022/01/13 05:48:37;;;;;;;4.23;2.10;;;-1.10;77.30;;;;;;5121947;27;20064;-73
2022/01/13 05:51:02;;;;;;;4.53;2.00;;;-1.10;76.70;;;;;;5124505;27;20026;-73
2022/01/13 05:53:28;;;;;;;5.27;2.47;;;-1.00;76.60;;;;;;5124570;27;20135;-73
2022/01/13 05:55:54;;;;;;;4.10;1.90;;;-0.90;75.90;;;;;;5121801;27;20149;-73
2022/01/13 05:58:20;;;;;;;2.85;1.27;;;-0.90;76.30;;;;;;5120850;27;20039;-72
2022/01/13 06:00:45;;;;;;;3.77;1.67;;;-0.90;75.60;;;;;;5116724;27;20461;-73
2022/01/13 06:03:11;;;;;;;3.33;1.60;;;-0.80;75.00;;;;;;5113443;27;20109;-73
2022/01/13 06:05:37;;;;;;;5.73;2.17;;;-0.80;75.20;;;;;;5117250;27;20039;-72
2022/01/13 06:08:04;;;;;;;4.57;1.83;;;-1.00;76.40;;;;;;5119545;27;20035;-73
2022/01/13 06:10:30;;;;;;;3.83;1.80;;;-0.90;76.70;;;;;;5123483;27;21853;-72
2022/01/13 06:12:56;;;;;;;3.43;1.40;;;-1.00;76.60;;;;;;5123553;27;20027;-73
2022/01/13 06:15:25;;;;;;;3.07;1.73;;;-0.90;75.70;;;;;;5124119;27;20037;-72
2022/01/13 06:17:54;;;;;;;2.70;1.07;;;-0.60;74.80;;;;;;5117160;27;20650;-73
2022/01/13 06:20:21;;;;;;;3.67;1.53;;;-0.40;73.70;;;;;;5125598;27;20031;-73
2022/01/13 06:22:49;;;;;;;3.77;1.80;;;-0.30;73.40;;;;;;5115321;27;20023;-73
2022/01/13 06:25:15;;;;;;;3.23;1.77;;;-0.20;72.80;;;;;;5122671;27;20095;-73
2022/01/13 06:27:42;;;;;;;4.63;1.80;;;-0.40;73.80;;;;;;5124213;27;20047;-73
2022/01/13 06:30:11;;;;;;;5.10;2.47;;;-0.60;75.50;;;;;;5125886;27;20031;-73
2022/01/13 06:32:38;;;;;;;3.42;1.60;;;-0.80;75.90;;;;;;5123108;27;20024;-73
2022/01/13 06:35:04;;;;;;;4.13;1.58;;;-1.00;76.30;;;;;;5125554;27;20056;-72
2022/01/13 06:37:30;;;;;;;4.80;2.37;;;-1.10;77.30;;;;;;5121927;27;20045;-73
2022/01/13 06:39:56;;;;;;;3.58;1.75;;;-1.00;76.20;;;;;;5121499;27;20489;-73
2022/01/13 06:42:22;;;;;;;4.47;1.80;;;-1.10;77.10;;;;;;5117362;27;20031;-73
2022/01/13 06:44:47;;;;;;;5.18;2.40;;;-1.10;78.00;;;;;;5115157;27;20039;-73
2022/01/13 06:47:13;;;;;;;5.65;2.30;;;-1.20;78.10;;;;;;5123367;27;20063;-73
2022/01/13 06:49:39;;;;;;;7.03;2.50;;;-1.20;77.60;;;;;;5119333;27;20392;-73
2022/01/13 06:52:06;;;;;;;8.82;2.85;;;-1.10;77.10;;;;;;5122362;27;20023;-73
2022/01/13 06:54:32;;;;;;;5.05;2.42;;;-1.00;76.90;;;;;;5119492;27;20053;-73
2022/01/13 06:56:58;;;;;;;5.30;2.25;;;-0.80;75.40;;;;;;5118250;27;20023;-73
2022/01/13 06:59:24;;;;;;;5.43;2.27;;;-0.70;75.60;;;;;;5120744;27;20098;-73
2022/01/13 07:01:50;;;;;;;6.33;1.77;;;-0.70;75.40;;;;;;5120013;27;20473;-72
2022/01/13 07:04:16;;;;;;;4.97;2.15;;;-0.80;76.90;;;;;;5128290;27;20031;-73
2022/01/13 07:06:44;;;;;;;4.15;1.75;;;-0.80;76.30;;;;;;5124735;27;20038;-74
2022/01/13 07:09:13;;;;;;;3.78;1.65;;;-0.80;76.20;;;;;;5125452;27;20039;-73
2022/01/13 07:11:40;;;;;;;5.82;2.33;;;-0.80;76.20;;;;;;5116798;27;20132;-74
2022/01/13 07:14:06;;;;;;;5.43;2.00;;;-0.80;75.50;;;;;;5111959;27;20050;-73
2022/01/13 07:16:34;;;;;;;5.03;1.83;;;-0.80;75.30;;;;;;5116653;27;20027;-73
2022/01/13 07:19:00;;;;;;;6.97;1.83;;;-0.70;75.50;;;;;;5113631;27;20027;-73
2022/01/13 07:21:27;;;;;;;3.50;1.73;;;-0.70;75.10;;;;;;5119377;27;20050;-73
2022/01/13 07:23:54;;;;;;;5.53;2.20;;;-0.60;75.30;;;;;;5117780;27;20034;-73
2022/01/13 07:26:20;;;;;;;5.88;2.50;;;-0.70;75.80;;;;;;5117081;27;20173;-74
2022/01/13 07:28:46;;;;;;;5.30;1.87;;;-0.60;75.30;;;;;;5114377;27;20112;-73
2022/01/13 07:31:14;;;;;;;10.23;2.35;;;-0.70;75.30;;;;;;5116866;27;20361;-73
2022/01/13 07:33:41;;;;;;;3.53;1.70;;;-0.60;76.40;;;;;;5112582;27;20385;-73
2022/01/13 07:36:07;;;;;;;4.55;1.92;;;-0.70;76.50;;;;;;5107186;27;20031;-73
2022/01/13 07:38:33;;;;;;;5.13;2.45;;;-0.70;77.00;;;;;;5118764;27;20031;-74
2022/01/13 07:40:59;;;;;;;6.07;2.00;;;-0.80;76.70;;;;;;5103067;27;20221;-73
2022/01/13 07:43:26;;;;;;;3.90;1.77;;;-0.90;77.10;;;;;;5106758;27;20171;-74
2022/01/13 07:45:53;;;;;;;5.47;2.72;;;-0.70;75.70;;;;;;5121856;27;20023;-73
2022/01/13 07:48:19;;;;;;;3.55;1.83;;;-0.70;75.20;;;;;;5118337;27;20086;-72
2022/01/13 07:50:45;;;;;;;3.72;1.52;;;-0.60;75.00;;;;;;5119320;27;20689;-72
2022/01/13 07:53:11;;;;;;;4.10;1.63;;;-0.50;75.20;;;;;;5113776;27;20059;-72
2022/01/13 07:55:37;;;;;;;3.78;1.92;;;-0.60;76.30;;;;;;5113304;27;20031;-73
2022/01/13 07:58:03;;;;;;;4.25;1.75;;;-0.70;76.10;;;;;;5117303;27;20027;-73
2022/01/13 08:00:30;;;;;;;5.57;2.37;;;-0.70;76.60;;;;;;5111008;27;20052;-72
2022/01/13 08:02:56;;;;;;;4.50;1.80;;;-0.70;77.30;;;;;;5113325;27;20031;-72
2022/01/13 08:05:22;;;;;;;4.57;2.00;;;-0.70;76.30;;;;;;5123295;27;20118;-72
2022/01/13 08:07:48;;;;;;;8.52;4.00;;;-0.80;77.20;;;;;;5122541;27;20071;-73
2022/01/13 08:10:14;;;;;;;8.40;4.40;;;-0.70;76.90;;;;;;5117081;27;20019;-72
2022/01/13 08:12:40;;;;;;;13.77;7.90;;;-0.70;77.00;;;;;;5122863;27;20023;-73
2022/01/13 08:15:10;;;;;;;11.35;7.88;;;-0.70;76.60;;;;;;5115180;27;20038;-73
2022/01/13 08:20:19;;;;;;;4.97;3.03;;;-0.80;76.90;;;;;;5117605;27;20069;-73
2022/01/13 08:22:46;;;;;;;4.85;2.58;;;-0.80;79.40;;;;;;5110345;27;20900;-72
2022/01/13 08:25:13;;;;;;;7.38;3.42;;;-0.80;79.70;;;;;;5120464;27;20920;-73
2022/01/13 08:27:39;;;;;;;8.00;4.07;;;-1.00;79.60;;;;;;5116075;27;20031;-72
2022/01/13 08:30:06;;;;;;;10.30;4.35;;;-1.00;78.30;;;;;;5123460;27;20557;-73
2022/01/13 08:32:32;;;;;;;7.00;3.63;;;-1.00;78.80;;;;;;5114480;27;20107;-72
2022/01/13 08:34:58;;;;;;;10.23;6.90;;;-0.90;79.60;;;;;;5123834;27;20075;-72
2022/01/13 08:37:26;;;;;;;7.53;4.13;;;-0.90;79.30;;;;;;5118821;27;20027;-73
2022/01/13 08:39:51;;;;;;;5.65;3.20;;;-0.90;78.40;;;;;;5121671;27;20035;-73
2022/01/13 08:42:17;;;;;;;7.55;3.50;;;-0.80;77.90;;;;;;5104762;27;20373;-72
2022/01/13 08:44:43;;;;;;;4.68;2.70;;;-0.90;78.70;;;;;;5122920;27;20038;-72
2022/01/13 08:47:09;;;;;;;5.40;2.50;;;-0.90;79.70;;;;;;5117561;28;20039;-72
2022/01/13 08:49:36;;;;;;;6.60;2.65;;;-0.80;79.90;;;;;;5124355;27;20047;-72
2022/01/13 08:52:03;;;;;;;6.97;2.40;;;-0.80;81.90;;;;;;5121246;28;20027;-72
2022/01/13 08:54:29;;;;;;;7.13;3.50;;;-0.90;82.20;;;;;;5114808;27;20051;-72
2022/01/13 08:56:57;;;;;;;6.97;3.25;;;-0.90;80.70;;;;;;5114337;28;20050;-72
2022/01/13 08:59:23;;;;;;;6.73;2.57;;;-0.80;81.60;;;;;;5117208;27;20183;-72
2022/01/13 09:01:48;;;;;;;5.47;2.58;;;-0.90;81.50;;;;;;5114250;28;20671;-73
2022/01/13 09:04:14;;;;;;;11.98;3.08;;;-0.90;80.80;;;;;;5112804;27;20035;-72
2022/01/13 09:06:40;;;;;;;6.47;3.38;;;-0.80;78.20;;;;;;5113037;27;20027;-72
2022/01/13 09:09:06;;;;;;;5.32;2.40;;;-0.70;77.90;;;;;;5120466;28;20031;-73
2022/01/13 09:11:32;;;;;;;4.50;2.27;;;-0.60;77.70;;;;;;5112661;28;20039;-73
2022/01/13 09:13:58;;;;;;;4.55;2.58;;;-0.60;79.20;;;;;;5101317;28;20023;-73
2022/01/13 09:16:26;;;;;;;4.97;2.08;;;-0.70;77.90;;;;;;5114008;28;20023;-75
2022/01/13 09:21:25;;;;;;;3.83;2.03;;;-0.40;77.40;;;;;;5123032;28;20034;-73
2022/01/13 09:23:51;;;;;;;5.13;2.10;;;-0.30;77.30;;;;;;5124517;27;20039;-73
2022/01/13 09:26:17;;;;;;;5.80;2.30;;;-0.20;76.20;;;;;;5118220;27;20027;-73
2022/01/13 09:28:43;;;;;;;6.43;2.08;;;-0.20;76.00;;;;;;5123571;28;20070;-73
2022/01/13 09:31:09;;;;;;;6.57;2.30;;;-0.20;75.80;;;;;;5123885;27;20069;-73
2022/01/13 09:33:35;;;;;;;5.90;2.75;;;-0.20;76.10;;;;;;5123861;27;20020;-72
2022/01/13 09:36:03;;;;;;;5.47;2.17;;;-0.10;76.60;;;;;;5126910;27;20027;-73
2022/01/13 09:38:28;;;;;;;5.00;2.10;;;-0.20;77.20;;;;;;5128230;27;20114;-73
2022/01/13 09:40:55;;;;;;;5.32;2.40;;;-0.20;78.10;;;;;;5128320;27;20130;-73
2022/01/13 09:43:23;;;;;;;5.60;1.75;;;-0.30;76.70;;;;;;5126623;27;20414;-73
2022/01/13 09:45:49;;;;;;;8.75;1.85;;;-0.20;75.50;;;;;;5125328;27;20027;-73
2022/01/13 09:48:15;;;;;;;4.00;1.73;;;0.00;74.70;;;;;;5121875;27;20427;-73
2022/01/13 09:50:43;;;;;;;4.25;1.98;;;0.20;74.60;;;;;;5126524;27;20073;-73
2022/01/13 09:53:09;;;;;;;3.50;1.73;;;0.30;74.80;;;;;;5125162;27;20126;-73
2022/01/13 09:55:35;;;;;;;4.43;2.13;;;0.20;76.60;;;;;;5118084;27;20856;-73
2022/01/13 09:58:05;;;;;;;4.80;2.15;;;0.20;75.60;;;;;;5120932;27;20102;-73
2022/01/13 10:00:31;;;;;;;3.60;1.77;;;0.10;75.90;;;;;;5124629;27;20027;-73
2022/01/13 10:02:58;;;;;;;5.05;1.80;;;0.00;76.90;;;;;;5120751;27;20026;-73
2022/01/13 10:05:24;;;;;;;5.72;2.08;;;-0.10;76.30;;;;;;5119834;27;20023;-73
2022/01/13 10:07:52;;;;;;;3.33;1.52;;;0.00;76.30;;;;;;5118809;27;20046;-73
2022/01/13 10:10:20;;;;;;;5.55;2.38;;;-0.10;77.80;;;;;;5119777;27;20620;-73
2022/01/13 10:12:58;;;;;;;4.40;2.30;;;-0.10;76.70;;;;;;5117538;27;20019;-73
2022/01/13 10:18:08;;;;;;;5.07;2.43;;;0.00;75.80;;;;;;5129959;27;20046;-73
2022/01/13 10:20:34;;;;;;;4.40;2.03;;;-0.10;76.10;;;;;;5128485;27;20269;-72
2022/01/13 10:23:10;;;;;;;4.03;2.05;;;-0.10;76.20;;;;;;5125706;27;20394;-73
2022/01/13 10:25:39;;;;;;;7.47;2.95;;;-0.10;76.30;;;;;;5124836;27;20030;-74
2022/01/13 10:28:31;;;;;;;9.30;2.65;;;0.00;75.60;;;;;;5120861;27;20043;-74
2022/01/13 10:30:57;;;;;;;6.45;2.03;;;0.20;74.60;;;;;;5123428;27;20053;-73
2022/01/13 10:33:26;;;;;;;4.55;2.13;;;0.30;74.10;;;;;;5124709;27;20031;-74
2022/01/13 10:36:04;;;;;;;4.80;2.15;;;0.40;74.10;;;;;;5120159;27;20115;-74
2022/01/13 10:38:58;;;;;;;8.93;2.92;;;0.50;73.40;;;;;;5126717;27;20533;-73
2022/01/13 10:42:00;;;;;;;7.45;3.30;;;0.40;76.00;;;;;;5100635;27;20396;-74
2022/01/13 10:44:24;;;;;;;4.13;1.60;;;0.60;75.60;;;;;;5118680;27;20050;-74
2022/01/13 10:46:58;;;;;;;6.32;2.00;;;0.60;73.60;;;;;;5122501;27;20027;-73
2022/01/13 10:49:35;;;;;;;6.20;2.05;;;0.70;73.20;;;;;;5116724;27;20626;-74
2022/01/13 10:52:25;;;;;;;4.35;2.00;;;0.80;73.30;;;;;;5121371;27;20035;-74
2022/01/13 10:54:53;;;;;;;6.15;1.63;;;0.90;73.30;;;;;;5125127;27;20046;-74
2022/01/13 10:57:24;;;;;;;6.05;2.30;;;1.00;73.00;;;;;;5119074;27;20070;-74
2022/01/13 10:59:50;;;;;;;8.38;3.30;;;1.10;74.90;;;;;;5120917;27;20505;-73
2022/01/13 11:02:21;;;;;;;5.80;2.88;;;1.30;76.50;;;;;;5121022;27;20046;-74
2022/01/13 11:04:47;;;;;;;9.85;3.53;;;1.40;75.90;;;;;;5127508;27;20031;-75
2022/01/13 11:07:19;;;;;;;9.52;4.80;;;1.50;75.80;;;;;;5117011;27;20438;-75
2022/01/13 11:09:57;;;;;;;10.82;4.78;;;1.70;78.50;;;;;;5124279;27;20106;-75
2022/01/13 11:12:43;;;;;;;15.52;4.90;;;1.70;78.40;;;;;;5115729;27;20035;-75
2022/01/13 11:15:15;;;;;;;15.35;8.80;;;1.80;79.60;;;;;;5123279;27;20078;-75
2022/01/13 11:17:45;;;;;;;9.88;5.63;;;1.80;78.70;;;;;;5119488;27;20051;-75
2022/01/13 11:20:12;;;;;;;11.30;5.03;;;1.90;78.40;;;;;;5124522;27;20031;-75
2022/01/13 11:22:40;;;;;;;9.73;4.90;;;2.10;80.20;;;;;;5123543;27;20026;-75
2022/01/13 11:25:08;;;;;;;9.80;4.68;;;2.30;78.40;;;;;;5123445;27;20033;-76
2022/01/13 11:27:35;;;;;;;9.45;4.60;;;2.50;78.00;;;;;;5111770;27;20046;-75
2022/01/13 11:30:02;;;;;;;10.38;5.57;;;2.40;77.90;;;;;;5118373;27;20031;-75
2022/01/13 11:32:28;;;;;;;16.88;4.95;;;2.50;77.80;;;;;;5119197;27;20183;-74
2022/01/13 11:34:58;;;;;;;15.20;6.25;;;2.60;77.80;;;;;;5124707;27;20110;-75
2022/01/13 11:37:28;;;;;;;16.35;4.68;;;2.70;76.90;;;;;;5124793;27;20049;-73
2022/01/13 11:39:54;;;;;;;8.05;4.55;;;2.80;76.60;;;;;;5129657;27;20167;-75
2022/01/13 11:42:20;;;;;;;10.65;4.45;;;2.90;77.10;;;;;;5118362;27;20066;-74
2022/01/13 11:45:10;;;;;;;11.40;4.90;;;3.00;76.30;;;;;;5110208;27;20132;-75
2022/01/13 11:47:36;;;;;;;11.18;4.40;;;3.10;76.20;;;;;;5109604;27;20112;-75
2022/01/13 11:50:30;;;;;;;8.25;4.18;;;3.20;76.50;;;;;;5120871;27;20157;-76
2022/01/13 11:52:57;;;;;;;8.67;4.67;;;3.30;76.20;;;;;;5122909;27;20027;-75
2022/01/13 11:55:28;;;;;;;8.48;4.60;;;3.60;76.20;;;;;;5112504;27;20028;-75
2022/01/13 11:58:14;;;;;;;9.05;5.07;;;3.70;75.10;;;;;;5094099;27;20027;-76
2022/01/13 12:00:43;;;;;;;7.35;3.60;;;3.60;74.80;;;;;;5096637;27;20036;-76
2022/01/13 12:03:32;;;;;;;9.38;4.50;;;3.50;74.70;;;;;;5096232;27;20135;-76
2022/01/13 12:05:59;;;;;;;11.82;4.55;;;3.70;75.60;;;;;;5095038;27;20631;-76
2022/01/13 12:08:35;;;;;;;10.73;4.22;;;3.80;74.60;;;;;;5108733;27;20037;-76
2022/01/13 12:11:01;;;;;;;8.80;3.83;;;4.00;74.70;;;;;;5100646;27;20027;-76
2022/01/13 12:13:35;;;;;;;10.48;3.95;;;4.00;73.90;;;;;;5114020;27;20019;-76
2022/01/13 12:16:02;;;;;;;8.27;3.58;;;3.90;73.70;;;;;;5103698;27;20109;-76
2022/01/13 12:18:45;;;;;;;9.32;4.60;;;3.90;73.50;;;;;;5111252;27;20015;-76
2022/01/13 12:21:32;;;;;;;7.82;3.92;;;4.20;72.70;;;;;;5111934;27;20035;-77
2022/01/13 12:24:00;;;;;;;8.93;4.15;;;4.20;72.60;;;;;;5105746;27;20053;-77
2022/01/13 12:26:34;;;;;;;10.10;3.80;;;4.30;72.50;;;;;;5115616;27;20054;-76
2022/01/13 12:29:22;;;;;;;11.90;5.22;;;4.60;71.90;;;;;;5106321;27;20126;-77
2022/01/13 12:31:54;;;;;;;6.93;4.00;;;4.50;72.00;;;;;;5117125;27;20027;-76
2022/01/13 12:34:33;;;;;;;6.70;3.92;;;4.70;71.60;;;;;;5104420;28;20031;-77
2022/01/13 12:37:21;;;;;;;9.23;4.22;;;4.60;71.50;;;;;;5106991;27;20043;-77
2022/01/13 12:39:58;;;;;;;9.85;4.10;;;4.70;71.40;;;;;;5106781;27;20031;-76
2022/01/13 12:42:55;;;;;;;9.93;4.18;;;4.70;71.60;;;;;;5116317;27;20027;-77
2022/01/13 12:45:28;;;;;;;6.38;3.60;;;4.70;71.20;;;;;;5105218;27;20039;-77
2022/01/13 12:47:59;;;;;;;6.93;3.83;;;4.80;72.10;;;;;;5108055;27;20115;-77
2022/01/13 12:50:29;;;;;;;8.77;3.90;;;4.90;72.30;;;;;;5110822;28;20759;-77
2022/01/13 12:53:20;;;;;;;9.85;4.22;;;5.00;72.40;;;;;;5108160;28;20073;-76
2022/01/13 12:56:09;;;;;;;17.55;13.40;;;5.00;71.80;;;;;;5124591;28;20223;-77
2022/01/13 12:58:38;;;;;;;15.57;10.45;;;5.00;71.90;;;;;;5124539;28;20034;-77
2022/01/13 13:01:05;;;;;;;13.02;7.88;;;4.90;71.20;;;;;;5121421;27;20099;-76
2022/01/13 13:03:31;;;;;;;14.43;5.75;;;5.00;71.60;;;;;;5118083;28;20031;-76
2022/01/13 13:05:57;;;;;;;13.80;8.68;;;5.10;72.10;;;;;;5124990;27;20076;-77
2022/01/13 13:08:25;;;;;;;6.82;4.55;;;5.20;71.30;;;;;;5122542;27;20664;-77
2022/01/13 13:10:59;;;;;;;14.23;12.73;;;5.40;71.10;;;;;;5126966;27;20381;-76
2022/01/13 13:13:27;;;;;;;12.93;10.32;;;5.40;70.80;;;;;;5126557;27;20075;-77
2022/01/13 13:15:54;;;;;;;11.50;5.07;;;5.40;70.70;;;;;;5130760;27;20114;-77
2022/01/13 13:18:24;;;;;;;9.15;5.65;;;5.30;70.20;;;;;;5127057;27;20138;-77
2022/01/13 13:20:50;;;;;;;7.10;3.75;;;5.10;70.40;;;;;;5124571;27;20629;-76
2022/01/13 13:23:20;;;;;;;6.00;3.30;;;5.20;70.70;;;;;;5125992;27;20034;-77